createdAt,value
2023-05-05T00:00:14.293Z,25.28
2023-05-05T00:01:14.282Z,25.28
2023-05-05T00:02:14.331Z,25.27
2023-05-05T00:03:14.395Z,25.24
2023-05-05T00:04:14.325Z,25.27
2023-05-05T00:05:14.259Z,25.25
2023-05-05T00:06:14.280Z,25.27
2023-05-05T00:07:14.309Z,25.24
2023-05-05T00:08:14.265Z,25.27
2023-05-05T00:09:14.267Z,25.27
2023-05-05T00:10:14.296Z,25.25
2023-05-05T00:11:14.325Z,25.27
2023-05-05T00:12:14.275Z,25.25
2023-05-05T00:13:14.325Z,25.25
2023-05-05T00:14:14.314Z,25.25
2023-05-05T00:15:14.339Z,25.22
2023-05-05T00:16:14.309Z,25.24
2023-05-05T00:17:14.426Z,25.24
2023-05-05T00:18:14.284Z,25.24
2023-05-05T00:19:14.336Z,25.22
2023-05-05T00:20:14.331Z,25.24
2023-05-05T00:21:14.285Z,25.22
2023-05-05T00:22:14.305Z,25.24
2023-05-05T00:23:14.332Z,25.24
2023-05-05T00:24:14.298Z,25.22
2023-05-05T00:25:14.311Z,25.22
2023-05-05T00:26:14.332Z,25.24
2023-05-05T00:27:14.313Z,25.22
2023-05-05T00:28:14.361Z,25.21
2023-05-05T00:29:14.331Z,25.24
2023-05-05T00:30:14.358Z,25.21
2023-05-05T00:31:14.415Z,25.21
2023-05-05T00:32:14.339Z,25.21
2023-05-05T00:33:14.334Z,25.22
2023-05-05T00:34:14.353Z,25.22
2023-05-05T00:35:14.346Z,25.20
2023-05-05T00:36:14.372Z,25.18
2023-05-05T00:37:14.378Z,25.21
2023-05-05T00:38:14.379Z,25.21
2023-05-05T00:39:14.403Z,25.21
2023-05-05T00:40:14.394Z,25.22
2023-05-05T00:41:14.413Z,25.21
2023-05-05T00:42:14.424Z,25.21
2023-05-05T00:43:14.397Z,25.21
2023-05-05T00:44:14.411Z,25.21
2023-05-05T00:45:14.429Z,25.20
2023-05-05T00:46:14.568Z,25.20
2023-05-05T00:47:14.433Z,25.18
2023-05-05T00:48:14.445Z,25.20
2023-05-05T00:49:14.489Z,25.18
2023-05-05T00:50:14.445Z,25.18
2023-05-05T00:51:14.466Z,25.20
2023-05-05T00:52:14.468Z,25.20
2023-05-05T00:53:14.478Z,25.20
2023-05-05T00:54:14.453Z,25.18
2023-05-05T00:55:14.478Z,25.17
2023-05-05T00:56:14.484Z,25.20
2023-05-05T00:57:14.518Z,25.18
2023-05-05T00:58:14.494Z,25.18
2023-05-05T00:59:14.512Z,25.20
2023-05-05T01:00:14.543Z,25.15
2023-05-05T01:01:14.542Z,25.18
2023-05-05T01:02:14.538Z,25.18
2023-05-05T01:03:14.549Z,25.17
2023-05-05T01:04:14.521Z,25.20
2023-05-05T01:05:14.521Z,25.14
2023-05-05T01:06:14.544Z,25.15
2023-05-05T01:07:14.531Z,25.18
2023-05-05T01:08:14.538Z,25.17
2023-05-05T01:09:14.550Z,25.18
2023-05-05T01:10:20.192Z,25.15
2023-05-05T01:11:15.542Z,25.15
2023-05-05T01:12:14.556Z,25.14
2023-05-05T01:13:14.565Z,25.15
2023-05-05T01:14:14.518Z,25.15
2023-05-05T01:15:14.501Z,25.15
2023-05-05T01:16:14.526Z,25.14
2023-05-05T01:17:14.495Z,25.14
2023-05-05T01:18:14.487Z,25.15
2023-05-05T01:19:14.483Z,25.14
2023-05-05T01:20:14.488Z,25.14
2023-05-05T01:21:14.454Z,25.15
2023-05-05T01:22:14.460Z,25.13
2023-05-05T01:23:14.439Z,25.15
2023-05-05T01:24:14.426Z,25.14
2023-05-05T01:25:14.432Z,25.14
2023-05-05T01:26:14.425Z,25.14
2023-05-05T01:27:14.466Z,25.15
2023-05-05T01:28:14.416Z,25.14
2023-05-05T01:29:14.393Z,25.14
2023-05-05T01:30:14.417Z,25.14
2023-05-05T01:31:14.394Z,25.14
2023-05-05T01:32:14.393Z,25.14
2023-05-05T01:33:14.365Z,25.13
2023-05-05T01:34:14.370Z,25.14
2023-05-05T01:35:14.348Z,25.14
2023-05-05T01:36:14.353Z,25.13
2023-05-05T01:37:14.338Z,25.13
2023-05-05T01:38:14.377Z,25.13
2023-05-05T01:39:14.372Z,25.13
2023-05-05T01:40:14.342Z,25.11
2023-05-05T01:41:14.299Z,25.10
2023-05-05T01:42:14.340Z,25.13
2023-05-05T01:43:14.342Z,25.13
2023-05-05T01:44:14.349Z,25.14
2023-05-05T01:45:14.373Z,25.11
2023-05-05T01:46:14.476Z,25.13
2023-05-05T01:47:14.381Z,25.11
2023-05-05T01:48:14.425Z,25.13
2023-05-05T01:49:14.443Z,25.11
2023-05-05T01:50:14.433Z,25.13
2023-05-05T01:51:14.498Z,25.08
2023-05-05T01:52:14.464Z,25.10
2023-05-05T01:53:14.495Z,25.10
2023-05-05T01:54:14.502Z,25.08
2023-05-05T01:55:14.503Z,25.08
2023-05-05T01:56:14.527Z,25.10
2023-05-05T01:57:14.537Z,25.11
2023-05-05T01:58:14.573Z,25.08
2023-05-05T01:59:14.595Z,25.07
2023-05-05T02:00:14.572Z,25.10
2023-05-05T02:01:14.614Z,25.10
2023-05-05T02:02:14.597Z,25.10
2023-05-05T02:03:14.797Z,25.08
2023-05-05T02:04:14.650Z,25.10
2023-05-05T02:05:14.635Z,25.10
2023-05-05T02:06:14.666Z,25.08
2023-05-05T02:07:14.691Z,25.10
2023-05-05T02:08:14.707Z,25.06
2023-05-05T02:09:14.691Z,25.10
2023-05-05T02:10:14.719Z,25.08
2023-05-05T02:11:14.757Z,25.07
2023-05-05T02:12:14.764Z,25.08
2023-05-05T02:13:14.962Z,25.07
2023-05-05T02:14:14.763Z,25.08
2023-05-05T02:15:14.796Z,25.06
2023-05-05T02:16:14.921Z,25.08
2023-05-05T02:17:14.834Z,25.07
2023-05-05T02:18:14.834Z,25.07
2023-05-05T02:19:14.818Z,25.08
2023-05-05T02:20:14.843Z,25.06
2023-05-05T02:21:14.869Z,25.07
2023-05-05T02:22:14.858Z,25.07
2023-05-05T02:23:14.880Z,25.06
2023-05-05T02:24:14.893Z,25.08
2023-05-05T02:25:14.937Z,25.06
2023-05-05T02:26:14.917Z,25.07
2023-05-05T02:27:14.968Z,25.04
2023-05-05T02:28:14.970Z,25.07
2023-05-05T02:29:14.962Z,25.06
2023-05-05T02:30:14.989Z,25.06
2023-05-05T02:31:15.025Z,25.06
2023-05-05T02:32:15.005Z,25.06
2023-05-05T02:33:15.022Z,25.07
2023-05-05T02:34:15.044Z,25.06
2023-05-05T02:35:15.060Z,25.04
2023-05-05T02:36:15.081Z,25.04
2023-05-05T02:37:15.092Z,25.04
2023-05-05T02:38:15.135Z,25.04
2023-05-05T02:39:15.141Z,25.06
2023-05-05T02:40:15.150Z,25.06
2023-05-05T02:41:15.183Z,25.04
2023-05-05T02:42:15.177Z,25.04
2023-05-05T02:43:15.259Z,25.04
2023-05-05T02:44:15.219Z,25.03
2023-05-05T02:45:15.266Z,25.03
2023-05-05T02:46:15.299Z,25.04
2023-05-05T02:47:15.290Z,25.04
2023-05-05T02:48:15.302Z,25.04
2023-05-05T02:49:15.313Z,25.03
2023-05-05T02:50:15.347Z,25.00
2023-05-05T02:51:15.351Z,25.03
2023-05-05T02:52:15.364Z,25.01
2023-05-05T02:53:15.391Z,25.03
2023-05-05T02:54:15.393Z,25.04
2023-05-05T02:55:15.429Z,25.03
2023-05-05T02:56:15.444Z,25.03
2023-05-05T02:57:15.442Z,25.01
2023-05-05T02:58:15.489Z,25.00
2023-05-05T02:59:16.366Z,25.01
2023-05-05T03:00:15.510Z,25.03
2023-05-05T03:01:15.567Z,25.00
2023-05-05T03:02:15.572Z,25.03
2023-05-05T03:03:15.697Z,25.01
2023-05-05T03:04:15.602Z,25.01
2023-05-05T03:05:15.606Z,25.00
2023-05-05T03:06:15.646Z,25.01
2023-05-05T03:07:15.647Z,24.98
2023-05-05T03:08:15.695Z,25.00
2023-05-05T03:09:15.718Z,24.98
2023-05-05T03:10:15.725Z,25.00
2023-05-05T03:11:15.739Z,25.01
2023-05-05T03:12:15.788Z,24.98
2023-05-05T03:13:15.826Z,24.98
2023-05-05T03:14:15.811Z,24.98
2023-05-05T03:15:15.841Z,24.98
2023-05-05T03:16:15.909Z,25.00
2023-05-05T03:17:15.884Z,25.00
2023-05-05T03:18:15.900Z,25.00
2023-05-05T03:19:15.937Z,25.00
2023-05-05T03:20:15.962Z,24.98
2023-05-05T03:21:16.030Z,24.98
2023-05-05T03:22:16.025Z,24.97
2023-05-05T03:23:16.046Z,24.97
2023-05-05T03:24:16.044Z,24.98
2023-05-05T03:25:16.065Z,24.98
2023-05-05T03:26:16.094Z,24.98
2023-05-05T03:27:16.122Z,25.00
2023-05-05T03:28:16.154Z,25.00
2023-05-05T03:29:16.177Z,24.97
2023-05-05T03:30:16.216Z,24.97
2023-05-05T03:31:16.276Z,24.98
2023-05-05T03:32:16.359Z,24.97
2023-05-05T03:33:16.302Z,24.98
2023-05-05T03:34:16.305Z,24.95
2023-05-05T03:35:16.313Z,24.95
2023-05-05T03:36:16.361Z,24.98
2023-05-05T03:37:16.377Z,24.97
2023-05-05T03:38:16.412Z,24.97
2023-05-05T03:39:16.440Z,24.97
2023-05-05T03:40:16.457Z,24.94
2023-05-05T03:41:16.487Z,24.94
2023-05-05T03:42:16.498Z,24.95
2023-05-05T03:43:16.568Z,24.95
2023-05-05T03:44:16.557Z,24.95
2023-05-05T03:45:16.594Z,24.95
2023-05-05T03:46:16.655Z,24.95
2023-05-05T03:47:16.633Z,24.98
2023-05-05T03:48:16.650Z,24.95
2023-05-05T03:49:16.681Z,24.95
2023-05-05T03:50:16.753Z,24.95
2023-05-05T03:51:16.715Z,24.95
2023-05-05T03:52:16.749Z,24.95
2023-05-05T03:53:16.861Z,24.95
2023-05-05T03:54:16.830Z,24.97
2023-05-05T03:55:16.846Z,24.94
2023-05-05T03:56:16.893Z,24.97
2023-05-05T03:57:16.926Z,24.95
2023-05-05T03:58:16.957Z,24.94
2023-05-05T03:59:16.967Z,24.95
2023-05-05T04:00:17.028Z,24.94
2023-05-05T04:01:17.045Z,24.95
2023-05-05T04:02:18.615Z,24.95
2023-05-05T04:03:17.219Z,24.95
2023-05-05T04:04:17.134Z,24.94
2023-05-05T04:05:17.144Z,24.95
2023-05-05T04:06:17.193Z,24.94
2023-05-05T04:07:17.231Z,24.95
2023-05-05T04:08:17.224Z,24.94
2023-05-05T04:09:17.257Z,24.94
2023-05-05T04:10:17.300Z,24.95
2023-05-05T04:11:17.298Z,24.94
2023-05-05T04:12:17.331Z,24.94
2023-05-05T04:13:17.389Z,24.93
2023-05-05T04:14:17.400Z,24.95
2023-05-05T04:15:17.430Z,24.95
2023-05-05T04:16:17.456Z,24.93
2023-05-05T04:17:17.507Z,24.94
2023-05-05T04:18:17.542Z,24.94
2023-05-05T04:19:17.551Z,24.94
2023-05-05T04:20:17.572Z,24.93
2023-05-05T04:21:17.601Z,24.94
2023-05-05T04:22:17.630Z,24.94
2023-05-05T04:23:17.699Z,24.95
2023-05-05T04:24:17.685Z,24.93
2023-05-05T04:25:17.732Z,24.95
2023-05-05T04:26:17.788Z,24.95
2023-05-05T04:27:17.810Z,24.94
2023-05-05T04:28:19.660Z,24.94
2023-05-05T04:29:17.834Z,24.94
2023-05-05T04:30:17.813Z,24.94
2023-05-05T04:31:17.799Z,24.95
2023-05-05T04:32:17.773Z,24.94
2023-05-05T04:33:17.806Z,24.94
2023-05-05T04:34:17.782Z,24.97
2023-05-05T04:35:17.759Z,24.94
2023-05-05T04:36:17.767Z,24.97
2023-05-05T04:37:17.754Z,24.95
2023-05-05T04:38:17.777Z,24.97
2023-05-05T04:39:17.746Z,24.94
2023-05-05T04:40:17.745Z,24.95
2023-05-05T04:41:17.758Z,24.97
2023-05-05T04:42:17.732Z,24.97
2023-05-05T04:43:17.704Z,24.94
2023-05-05T04:44:17.682Z,24.95
2023-05-05T04:45:17.692Z,24.95
2023-05-05T04:46:17.705Z,24.94
2023-05-05T04:47:17.691Z,24.98
2023-05-05T04:48:17.654Z,24.95
2023-05-05T04:49:17.667Z,24.97
2023-05-05T04:50:17.680Z,24.98
2023-05-05T04:51:17.638Z,24.98
2023-05-05T04:52:17.649Z,24.98
2023-05-05T04:53:17.637Z,24.98
2023-05-05T04:54:17.639Z,25.00
2023-05-05T04:55:17.604Z,25.01
2023-05-05T04:56:17.628Z,25.03
2023-05-05T04:57:17.594Z,25.06
2023-05-05T04:58:17.615Z,25.06
2023-05-05T04:59:17.598Z,25.08
2023-05-05T05:00:17.602Z,25.07
2023-05-05T05:01:17.579Z,25.08
2023-05-05T05:02:17.610Z,25.10
2023-05-05T05:03:17.628Z,25.13
2023-05-05T05:04:17.541Z,25.14
2023-05-05T05:05:17.554Z,25.15
2023-05-05T05:06:17.541Z,25.17
2023-05-05T05:07:17.524Z,25.18
2023-05-05T05:08:17.573Z,25.17
2023-05-05T05:09:17.523Z,25.17
2023-05-05T05:10:17.534Z,25.22
2023-05-05T05:11:17.519Z,25.21
2023-05-05T05:12:17.531Z,25.24
2023-05-05T05:13:17.702Z,25.22
2023-05-05T05:14:17.522Z,25.27
2023-05-05T05:15:17.478Z,25.28
2023-05-05T05:16:17.504Z,25.28
2023-05-05T05:17:17.482Z,25.30
2023-05-05T05:18:17.493Z,25.31
2023-05-05T05:19:17.483Z,25.31
2023-05-05T05:20:17.467Z,25.32
2023-05-05T05:21:17.430Z,25.31
2023-05-05T05:22:17.434Z,25.35
2023-05-05T05:23:17.456Z,25.35
2023-05-05T05:24:17.421Z,25.41
2023-05-05T05:25:17.417Z,25.40
2023-05-05T05:26:17.647Z,25.44
2023-05-05T05:27:17.441Z,25.42
2023-05-05T05:28:17.383Z,25.41
2023-05-05T05:29:17.449Z,25.41
2023-05-05T05:30:17.401Z,25.42
2023-05-05T05:31:17.488Z,25.41
2023-05-05T05:32:17.403Z,25.41
2023-05-05T05:33:17.355Z,25.45
2023-05-05T05:34:17.532Z,25.46
2023-05-05T05:35:17.394Z,25.41
2023-05-05T05:36:17.669Z,25.44
2023-05-05T05:37:17.366Z,25.49
2023-05-05T05:38:17.351Z,25.53
2023-05-05T05:39:17.594Z,25.51
2023-05-05T05:40:17.370Z,25.58
2023-05-05T05:41:17.381Z,25.51
2023-05-05T05:42:17.415Z,25.57
2023-05-05T05:43:17.499Z,25.61
2023-05-05T05:44:17.383Z,25.65
2023-05-05T05:45:17.467Z,25.69
2023-05-05T05:46:17.561Z,25.73
2023-05-05T05:47:17.554Z,25.79
2023-05-05T05:48:17.658Z,25.79
2023-05-05T05:49:17.677Z,25.81
2023-05-05T05:50:17.734Z,25.85
2023-05-05T05:51:17.862Z,25.86
2023-05-05T05:52:17.873Z,25.86
2023-05-05T05:53:17.967Z,25.85
2023-05-05T05:54:17.992Z,25.86
2023-05-05T05:55:18.094Z,25.89
2023-05-05T05:56:18.143Z,25.83
2023-05-05T05:57:18.207Z,25.85
2023-05-05T05:58:18.230Z,25.86
2023-05-05T05:59:18.305Z,25.86
2023-05-05T06:00:18.375Z,25.85
2023-05-05T06:01:18.424Z,25.91
2023-05-05T06:02:18.543Z,25.86
2023-05-05T06:03:18.743Z,25.91
2023-05-05T06:04:18.624Z,25.91
2023-05-05T06:05:18.691Z,25.92
2023-05-05T06:06:19.206Z,25.93
2023-05-05T06:07:18.799Z,25.95
2023-05-05T06:08:19.185Z,25.96
2023-05-05T06:09:18.885Z,25.96
2023-05-05T06:10:27.887Z,25.99
2023-05-05T06:11:19.972Z,25.99
2023-05-05T06:12:18.918Z,26.02
2023-05-05T06:13:18.933Z,26.03
2023-05-05T06:14:20.152Z,26.05
2023-05-05T06:15:18.914Z,26.05
2023-05-05T06:16:18.944Z,26.06
2023-05-05T06:17:18.898Z,26.09
2023-05-05T06:18:18.940Z,26.12
2023-05-05T06:19:18.873Z,26.13
2023-05-05T06:20:18.857Z,26.15
2023-05-05T06:21:18.952Z,26.15
2023-05-05T06:22:18.874Z,26.17
2023-05-05T06:23:18.874Z,26.20
2023-05-05T06:24:18.877Z,26.20
2023-05-05T06:25:18.952Z,26.22
2023-05-05T06:26:18.960Z,26.27
2023-05-05T06:27:18.978Z,26.27
2023-05-05T06:28:19.168Z,26.27
2023-05-05T06:29:19.038Z,26.30
2023-05-05T06:30:19.119Z,26.30
2023-05-05T06:31:19.143Z,26.35
2023-05-05T06:32:19.108Z,26.35
2023-05-05T06:33:19.147Z,26.36
2023-05-05T06:34:19.187Z,26.39
2023-05-05T06:35:19.204Z,26.39
2023-05-05T06:36:19.232Z,26.42
2023-05-05T06:37:19.236Z,26.42
2023-05-05T06:38:19.659Z,26.42
2023-05-05T06:39:19.272Z,26.43
2023-05-05T06:40:19.293Z,26.44
2023-05-05T06:41:19.302Z,26.46
2023-05-05T06:42:19.313Z,26.47
2023-05-05T06:43:19.352Z,26.51
2023-05-05T06:44:19.319Z,26.54
2023-05-05T06:45:19.336Z,26.57
2023-05-05T06:46:19.364Z,26.56
2023-05-05T06:47:19.699Z,26.60
2023-05-05T06:48:19.353Z,26.61
2023-05-05T06:49:19.386Z,26.63
2023-05-05T06:50:19.364Z,26.64
2023-05-05T06:51:19.439Z,26.66
2023-05-05T06:52:19.451Z,26.68
2023-05-05T06:53:19.399Z,26.71
2023-05-05T06:54:19.493Z,26.70
2023-05-05T06:55:19.402Z,26.70
2023-05-05T06:56:19.476Z,26.71
2023-05-05T06:57:19.418Z,26.74
2023-05-05T06:58:19.415Z,26.74
2023-05-05T06:59:19.413Z,26.77
2023-05-05T07:00:19.447Z,26.76
2023-05-05T07:01:19.612Z,26.77
2023-05-05T07:02:19.476Z,26.77
2023-05-05T07:03:19.627Z,26.78
2023-05-05T07:04:19.550Z,26.78
2023-05-05T07:05:19.441Z,26.80
2023-05-05T07:06:19.447Z,26.80
2023-05-05T07:07:19.471Z,26.81
2023-05-05T07:08:19.470Z,26.81
2023-05-05T07:09:19.504Z,26.81
2023-05-05T07:10:19.466Z,26.83
2023-05-05T07:11:19.495Z,26.83
2023-05-05T07:12:19.558Z,26.81
2023-05-05T07:13:19.690Z,26.86
2023-05-05T07:14:20.955Z,26.81
2023-05-05T07:15:28.769Z,26.84
2023-05-05T07:16:20.600Z,26.84
2023-05-05T07:17:19.544Z,26.86
2023-05-05T07:18:19.557Z,26.87
2023-05-05T07:19:19.535Z,26.88
2023-05-05T07:20:19.615Z,26.87
2023-05-05T07:21:19.564Z,26.90
2023-05-05T07:22:19.555Z,26.90
2023-05-05T07:23:19.517Z,26.91
2023-05-05T07:24:19.550Z,26.90
2023-05-05T07:25:19.514Z,26.91
2023-05-05T07:26:19.558Z,26.91
2023-05-05T07:27:19.492Z,26.94
2023-05-05T07:28:19.568Z,26.94
2023-05-05T07:29:19.775Z,26.94
2023-05-05T07:30:19.980Z,26.95
2023-05-05T07:31:19.690Z,26.97
2023-05-05T07:32:19.730Z,26.91
2023-05-05T07:33:19.740Z,26.87
2023-05-05T07:34:19.710Z,26.78
2023-05-05T07:35:19.682Z,26.80
2023-05-05T07:36:19.657Z,26.71
2023-05-05T07:37:19.664Z,26.70
2023-05-05T07:38:19.652Z,26.70
2023-05-05T07:39:19.685Z,26.74
2023-05-05T07:40:19.682Z,26.76
2023-05-05T07:41:19.667Z,26.77
2023-05-05T07:42:19.737Z,26.78
2023-05-05T07:43:19.718Z,26.77
2023-05-05T07:44:19.766Z,26.77
2023-05-05T07:45:19.788Z,26.77
2023-05-05T07:46:19.871Z,26.78
2023-05-05T07:47:20.079Z,26.80
2023-05-05T07:48:19.920Z,26.80
2023-05-05T07:49:19.994Z,26.80
2023-05-05T07:50:20.078Z,26.83
2023-05-05T07:51:20.154Z,26.84
2023-05-05T07:52:25.246Z,26.84
2023-05-05T07:53:21.141Z,26.86
2023-05-05T07:54:20.124Z,26.83
2023-05-05T07:55:20.149Z,26.87
2023-05-05T07:56:21.768Z,26.91
2023-05-05T07:57:20.142Z,26.91
2023-05-05T07:58:20.102Z,26.93
2023-05-05T07:59:20.113Z,26.94
2023-05-05T08:00:20.194Z,26.97
2023-05-05T08:01:20.144Z,26.97
2023-05-05T08:02:20.111Z,26.98
2023-05-05T08:03:20.264Z,27.00
2023-05-05T08:04:20.133Z,27.01
2023-05-05T08:05:20.045Z,27.02
2023-05-05T08:06:20.094Z,27.01
2023-05-05T08:07:20.115Z,27.04
2023-05-05T08:08:20.137Z,27.10
2023-05-05T08:09:20.178Z,27.08
2023-05-05T08:10:20.188Z,27.08
2023-05-05T08:11:20.297Z,27.11
2023-05-05T08:12:20.207Z,27.12
2023-05-05T08:13:20.548Z,27.15
2023-05-05T08:14:20.269Z,27.11
2023-05-05T08:15:20.290Z,27.12
2023-05-05T08:16:20.530Z,27.12
2023-05-05T08:17:20.345Z,27.12
2023-05-05T08:18:20.340Z,27.14
2023-05-05T08:19:28.615Z,27.12
2023-05-05T08:20:21.366Z,27.15
2023-05-05T08:21:20.328Z,27.15
2023-05-05T08:22:20.337Z,27.15
2023-05-05T08:23:20.304Z,27.18
2023-05-05T08:24:20.303Z,27.24
2023-05-05T08:25:20.354Z,27.27
2023-05-05T08:26:20.285Z,27.30
2023-05-05T08:27:20.315Z,27.32
2023-05-05T08:28:20.275Z,27.35
2023-05-05T08:29:20.279Z,27.38
2023-05-05T08:30:20.255Z,27.38
2023-05-05T08:31:27.425Z,27.40
2023-05-05T08:32:20.295Z,27.40
2023-05-05T08:33:20.269Z,27.40
2023-05-05T08:34:20.300Z,27.40
2023-05-05T08:35:20.268Z,27.37
2023-05-05T08:36:20.245Z,27.40
2023-05-05T08:37:20.231Z,27.38
2023-05-05T08:38:20.252Z,27.37
2023-05-05T08:39:20.289Z,27.35
2023-05-05T08:40:20.207Z,27.37
2023-05-05T08:41:20.194Z,27.34
2023-05-05T08:42:35.560Z,27.30
2023-05-05T08:43:21.184Z,27.30
2023-05-05T08:44:20.272Z,27.28
2023-05-05T08:45:20.163Z,27.20
2023-05-05T08:46:20.236Z,27.18
2023-05-05T08:47:20.212Z,27.18
2023-05-05T08:48:20.147Z,27.18
2023-05-05T08:49:20.135Z,27.18
2023-05-05T08:50:20.166Z,27.21
2023-05-05T08:51:20.134Z,27.17
2023-05-05T08:52:20.148Z,27.20
2023-05-05T08:53:20.144Z,27.21
2023-05-05T08:54:20.114Z,27.20
2023-05-05T08:55:20.087Z,27.18
2023-05-05T08:56:20.086Z,27.20
2023-05-05T08:57:20.076Z,27.15
2023-05-05T08:58:20.087Z,27.15
2023-05-05T08:59:20.112Z,27.15
2023-05-05T09:00:20.099Z,27.17
2023-05-05T09:01:20.127Z,27.15
2023-05-05T09:02:20.217Z,27.18
2023-05-05T09:03:20.278Z,27.20
2023-05-05T09:04:20.174Z,27.20
2023-05-05T09:05:20.203Z,27.21
2023-05-05T09:06:20.210Z,27.20
2023-05-05T09:07:20.242Z,27.21
2023-05-05T09:08:20.247Z,27.22
2023-05-05T09:09:20.279Z,27.24
2023-05-05T09:10:20.331Z,27.27
2023-05-05T09:11:20.316Z,27.25
2023-05-05T09:12:20.335Z,27.25
2023-05-05T09:13:20.407Z,27.27
2023-05-05T09:14:20.361Z,27.28
2023-05-05T09:15:20.381Z,27.30
2023-05-05T09:16:20.429Z,27.32
2023-05-05T09:17:20.409Z,27.30
2023-05-05T09:18:20.415Z,27.31
2023-05-05T09:19:20.450Z,27.35
2023-05-05T09:20:20.432Z,27.35
2023-05-05T09:21:20.452Z,27.37
2023-05-05T09:22:20.441Z,27.38
2023-05-05T09:23:20.466Z,27.37
2023-05-05T09:24:20.485Z,27.34
2023-05-05T09:25:20.484Z,27.35
2023-05-05T09:26:20.485Z,27.34
2023-05-05T09:27:20.500Z,27.34
2023-05-05T09:28:20.517Z,27.38
2023-05-05T09:29:20.545Z,27.40
2023-05-05T09:30:20.583Z,27.41
2023-05-05T09:31:20.573Z,27.41
2023-05-05T09:32:20.541Z,27.42
2023-05-05T09:33:20.629Z,27.42
2023-05-05T09:34:20.580Z,27.42
2023-05-05T09:35:20.697Z,27.48
2023-05-05T09:36:20.565Z,27.46
2023-05-05T09:37:20.586Z,27.40
2023-05-05T09:38:20.601Z,27.45
2023-05-05T09:39:20.632Z,27.42
2023-05-05T09:40:20.729Z,27.46
2023-05-05T09:41:20.669Z,27.49
2023-05-05T09:42:20.672Z,27.49
2023-05-05T09:43:20.666Z,27.51
2023-05-05T09:44:20.811Z,27.51
2023-05-05T09:45:20.724Z,27.49
2023-05-05T09:46:20.788Z,27.49
2023-05-05T09:47:29.355Z,27.52
2023-05-05T09:48:21.762Z,27.54
2023-05-05T09:49:20.754Z,27.55
2023-05-05T09:50:20.886Z,27.54
2023-05-05T09:51:20.745Z,27.55
2023-05-05T09:52:20.680Z,27.51
2023-05-05T09:53:20.687Z,27.49
2023-05-05T09:54:20.683Z,27.48
2023-05-05T09:55:20.656Z,27.48
2023-05-05T09:56:20.655Z,27.48
2023-05-05T09:57:20.654Z,27.51
2023-05-05T09:58:20.717Z,27.49
2023-05-05T09:59:20.696Z,27.52
2023-05-05T10:00:20.665Z,27.52
2023-05-05T10:01:20.686Z,27.55
2023-05-05T10:02:20.636Z,27.55
2023-05-05T10:03:20.606Z,27.55
2023-05-05T10:04:20.891Z,27.55
2023-05-05T10:05:20.688Z,27.56
2023-05-05T10:06:20.602Z,27.58
2023-05-05T10:07:20.618Z,27.56
2023-05-05T10:08:20.606Z,27.56
2023-05-05T10:09:20.602Z,27.58
2023-05-05T10:10:20.573Z,27.59
2023-05-05T10:11:20.564Z,27.59
2023-05-05T10:12:20.539Z,27.59
2023-05-05T10:13:20.552Z,27.59
2023-05-05T10:14:20.598Z,27.61
2023-05-05T10:15:20.580Z,27.62
2023-05-05T10:16:20.623Z,27.62
2023-05-05T10:17:20.708Z,27.65
2023-05-05T10:18:21.421Z,27.62
2023-05-05T10:19:20.714Z,27.61
2023-05-05T10:20:20.671Z,27.62
2023-05-05T10:21:20.725Z,27.59
2023-05-05T10:22:20.805Z,27.61
2023-05-05T10:23:21.180Z,27.62
2023-05-05T10:24:20.717Z,27.62
2023-05-05T10:25:20.872Z,27.63
2023-05-05T10:26:20.851Z,27.63
2023-05-05T10:27:20.778Z,27.65
2023-05-05T10:28:21.025Z,27.65
2023-05-05T10:29:20.776Z,27.63
2023-05-05T10:30:20.803Z,27.65
2023-05-05T10:31:26.493Z,27.58
2023-05-05T10:34:20.932Z,27.58
2023-05-05T10:35:20.834Z,27.61
2023-05-05T10:36:20.824Z,27.59
2023-05-05T10:37:20.800Z,27.61
2023-05-05T10:38:20.801Z,27.62
2023-05-05T10:39:20.818Z,27.63
2023-05-05T10:40:20.773Z,27.63
2023-05-05T10:41:20.751Z,27.65
2023-05-05T10:42:20.732Z,27.66
2023-05-05T10:43:20.808Z,27.71
2023-05-05T10:44:20.738Z,27.71
2023-05-05T10:45:20.860Z,27.72
2023-05-05T10:46:20.770Z,27.72
2023-05-05T10:47:20.705Z,27.75
2023-05-05T10:48:20.746Z,27.75
2023-05-05T10:49:20.712Z,27.76
2023-05-05T10:50:20.809Z,27.75
2023-05-05T10:51:31.109Z,27.78
2023-05-05T10:52:21.695Z,27.76
2023-05-05T10:53:20.688Z,27.79
2023-05-05T10:54:20.741Z,27.81
2023-05-05T10:55:20.761Z,27.79
2023-05-05T10:56:20.652Z,27.79
2023-05-05T10:57:20.652Z,27.79
2023-05-05T10:58:20.650Z,27.81
2023-05-05T10:59:20.627Z,27.79
2023-05-05T11:00:20.629Z,27.78
2023-05-05T11:01:20.694Z,27.81
2023-05-05T11:02:20.604Z,27.81
2023-05-05T11:03:20.659Z,27.81
2023-05-05T11:04:20.597Z,27.81
2023-05-05T11:05:20.663Z,27.82
2023-05-05T11:06:20.598Z,27.83
2023-05-05T11:07:20.621Z,27.81
2023-05-05T11:08:20.580Z,27.81
2023-05-05T11:09:20.603Z,27.83
2023-05-05T11:10:20.872Z,27.83
2023-05-05T11:11:20.613Z,27.83
2023-05-05T11:12:20.594Z,27.85
2023-05-05T11:13:20.539Z,27.86
2023-05-05T11:14:20.521Z,27.85
2023-05-05T11:15:20.515Z,27.83
2023-05-05T11:16:20.535Z,27.85
2023-05-05T11:17:20.498Z,27.88
2023-05-05T11:18:20.526Z,27.89
2023-05-05T11:19:20.484Z,27.91
2023-05-05T11:20:20.526Z,27.89
2023-05-05T11:21:20.489Z,27.95
2023-05-05T11:22:20.501Z,27.96
2023-05-05T11:23:20.509Z,27.96
2023-05-05T11:24:20.472Z,27.97
2023-05-05T11:25:20.491Z,27.99
2023-05-05T11:26:20.452Z,27.97
2023-05-05T11:27:20.542Z,27.96
2023-05-05T11:28:20.444Z,27.96
2023-05-05T11:29:20.452Z,27.96
2023-05-05T11:30:20.427Z,27.95
2023-05-05T11:31:20.449Z,27.95
2023-05-05T11:32:20.407Z,27.92
2023-05-05T11:33:20.843Z,27.92
2023-05-05T11:34:20.404Z,27.88
2023-05-05T11:35:20.400Z,27.88
2023-05-05T11:36:20.377Z,27.85
2023-05-05T11:37:20.363Z,27.83
2023-05-05T11:38:20.369Z,27.82
2023-05-05T11:39:20.397Z,27.82
2023-05-05T11:40:20.361Z,27.79
2023-05-05T11:41:20.356Z,27.76
2023-05-05T11:42:20.380Z,27.75
2023-05-05T11:43:20.520Z,27.72
2023-05-05T11:44:20.431Z,27.72
2023-05-05T11:45:20.510Z,27.71
2023-05-05T11:46:20.510Z,27.71
2023-05-05T11:47:20.487Z,27.68
2023-05-05T11:48:20.520Z,27.68
2023-05-05T11:49:20.551Z,27.69
2023-05-05T11:50:20.581Z,27.65
2023-05-05T11:51:20.601Z,27.65
2023-05-05T11:52:20.632Z,27.66
2023-05-05T11:53:20.656Z,27.63
2023-05-05T11:54:20.681Z,27.63
2023-05-05T11:55:20.696Z,27.65
2023-05-05T11:56:20.722Z,27.63
2023-05-05T11:57:20.753Z,27.65
2023-05-05T11:58:20.801Z,27.61
2023-05-05T11:59:20.858Z,27.59
2023-05-05T12:00:20.828Z,27.61
2023-05-05T12:01:20.846Z,27.58
2023-05-05T12:02:20.897Z,27.56
2023-05-05T12:03:20.988Z,27.56
2023-05-05T12:04:20.918Z,27.56
2023-05-05T12:05:20.949Z,27.55
2023-05-05T12:06:20.979Z,27.54
2023-05-05T12:07:21.019Z,27.55
2023-05-05T12:08:21.007Z,27.54
2023-05-05T12:09:21.043Z,27.52
2023-05-05T12:10:21.065Z,27.54
2023-05-05T12:11:21.078Z,27.52
2023-05-05T12:12:21.108Z,27.52
2023-05-05T12:13:21.310Z,27.49
2023-05-05T12:14:21.159Z,27.51
2023-05-05T12:15:21.302Z,27.52
2023-05-05T12:16:21.216Z,27.51
2023-05-05T12:17:21.221Z,27.52
2023-05-05T12:18:21.412Z,27.51
2023-05-05T12:19:21.269Z,27.48
2023-05-05T12:20:21.322Z,27.48
2023-05-05T12:21:21.328Z,27.51
2023-05-05T12:22:21.333Z,27.49
2023-05-05T12:23:21.359Z,27.51
2023-05-05T12:24:21.385Z,27.48
2023-05-05T12:25:21.437Z,27.46
2023-05-05T12:26:21.492Z,27.48
2023-05-05T12:27:21.543Z,27.48
2023-05-05T12:28:21.610Z,27.49
2023-05-05T12:29:21.641Z,27.51
2023-05-05T12:30:21.707Z,27.49
2023-05-05T12:31:21.769Z,27.46
2023-05-05T12:32:21.741Z,27.46
2023-05-05T12:33:21.817Z,27.48
2023-05-05T12:34:21.795Z,27.49
2023-05-05T12:35:21.799Z,27.46
2023-05-05T12:36:21.828Z,27.48
2023-05-05T12:37:21.873Z,27.48
2023-05-05T12:38:21.870Z,27.48
2023-05-05T12:39:21.894Z,27.45
2023-05-05T12:40:21.928Z,27.46
2023-05-05T12:41:21.957Z,27.49
2023-05-05T12:42:21.995Z,27.48
2023-05-05T12:43:22.019Z,27.48
2023-05-05T12:44:22.021Z,27.44
2023-05-05T12:45:22.050Z,27.45
2023-05-05T12:46:22.104Z,27.44
2023-05-05T12:47:22.126Z,27.45
2023-05-05T12:48:22.097Z,27.44
2023-05-05T12:49:22.118Z,27.42
2023-05-05T12:50:22.200Z,27.44
2023-05-05T12:51:22.174Z,27.45
2023-05-05T12:52:22.196Z,27.42
2023-05-05T12:53:22.205Z,27.44
2023-05-05T12:54:22.245Z,27.42